Hauptseite
METAR-TAF:

METAR-TAF

Flughäfen :

London City Airport

London, England

Breite: 51-30N, Länge: 000-03E, Höhe: 5 m

Beobachtung

Neuester Wetterbericht von vor 33 Minuten, um 10:50 UTC
Wind 6 kt aus Süd/Südost, variierte zwischen Ost und Süd
Temperatur 25°C
Luftfeuchtigkeit 32%
Luftdruck 1019 hPa
Sichtweite 10 km oder mehr

METAR: EGLC 191050Z AUTO 15006KT 100V190 9999 NCD 25/07 Q1019

Zeit: 12:23 (11:23 UTC)

Prognose

Neuester Wetterbericht von vor 3 Stunden und 22 Minuten, um 08:01 UTC
Gültige Prognose vom 19 um 09 UTC bis 19 um 18 UTC
Wind 6 kt aus Ost
Sichtweite 10 km oder mehr
Leicht bewölkt in der Höhe von 4500 ft

TAF: EGLC 190801Z 1909/1918 09006KT 9999 FEW045

Wetterbeobachtungen und Prognosen von mehr als 4000 Flughäfen (METAR und TAF Bericht).

Die verfügbaren Stationen werden durch gelbe und rote Markierungen auf der Karte dargestellt.

Führen Sie die Maus auf sie, um den Namen der Station zu sehen.

Darauf klicken, um die Beobachtung von Wetterbeobachtungen und Prognosen zu sehen.

Um die Karte zu ändern : klicken Sie auf den grünen Tasten mit einem schwarzen Kreuz Zum Vergrößern, auf den grünen Button mit einem Gedankenstrich zu verkleinern, oder auf die grünen Pfeile für benachbarte Karten.


METAR-TAF: